Stockton, Kansas
Current Conditions -  °F | °C
As of 11:53 AM on Saturday 25 Oct 2014 (Local Time) from KHLC Reporting Station
Clear Clear  
Wind Chill: 70°   Ceiling: Unl
Heat Index: 70°   Visibility: 10mi
Dew Point: 49°   Wind: 6mph
Humidity: 47%   Direction: 50°NE
Pressure: 30.1"   Gusts: NA
Location:  39.44°N, 99.27°W
Report Text: KHLC 251653Z AUTO 05005KT 10SM CLR 21/09 A3010 RMK AO2 SLP183 T02110094
Loading
Personal Weather Stations






























Interactive Weather Map
Tropical Storm Tracking
New forecast layout! Learn more

10-Day Weather Forecast

Advertisements
Track Severe Weather on mobile